Time;durP1;ratioP1;P1;durP2;ratioP2;P2;SDS_P1;SDS_P2;PMS_P1;PMS_P2;Temp;Humidity;BMP_temperature;BMP_pressure;BME280_temperature;BME280_humidity;BME280_pressure;Samples;Min_cycle;Max_cycle;Signal;HPM_P1;HPM_P2
2022/12/23 00:00:04;;;;;;;27.45;10.43;;;;;;;;;;5013891;28;20065;-76
2022/12/23 00:02:29;;;;;;;32.50;8.20;;;;;;;;;;5021832;28;20118;-75
2022/12/23 00:04:54;;;;;;;27.63;8.50;;;;;;;;;;5012087;28;20178;-75
2022/12/23 00:07:20;;;;;;;21.75;6.43;;;;;;;;;;5018811;28;20038;-76
2022/12/23 00:09:45;;;;;;;23.70;6.10;;;;;;;;;;5017095;28;20124;-75
2022/12/23 00:15:06;;;;;;;134.52;13.55;;;;;;;;;;5014145;28;20492;-75
2022/12/23 00:17:32;;;;;;;125.25;17.02;;;;;;;;;;5017570;28;20487;-75
2022/12/23 00:19:58;;;;;;;98.82;18.75;;;;;;;;;;5013369;28;20065;-76
2022/12/23 00:23:03;;;;;;;141.48;20.00;;;;;;;;;;5017905;28;20504;-77
2022/12/23 00:25:09;;;;;;;269.67;24.25;;;;;;;;;;5014014;28;20038;-75
2022/12/23 00:27:34;;;;;;;120.80;20.55;;;;;;;;;;5015705;28;20034;-75
2022/12/23 00:30:00;;;;;;;66.43;18.73;;;;;;;;;;5015369;28;20393;-74
2022/12/23 00:32:25;;;;;;;41.67;14.48;;;;;;;;;;5015150;28;20091;-75
2022/12/23 00:34:51;;;;;;;41.50;13.25;;;;;;;;;;5014429;28;20041;-74
2022/12/23 00:37:16;;;;;;;47.97;14.38;;;;;;;;;;5020838;28;20488;-74
2022/12/23 00:45:15;;;;;;;144.43;17.75;;;;;;;;;;5017333;28;20145;-75
2022/12/23 00:50:30;;;;;;;125.65;18.33;;;;;;;;;;5019209;28;20045;-75
2022/12/23 00:52:56;;;;;;;98.25;18.00;;;;;;;;;;5014731;28;21633;-74
2022/12/23 00:55:22;;;;;;;114.68;17.95;;;;;;;;;;5018341;28;20036;-75
2022/12/23 00:57:47;;;;;;;56.60;14.88;;;;;;;;;;5018958;28;20059;-75
2022/12/23 01:00:13;;;;;;;41.70;11.48;;;;;;;;;;5023546;28;20125;-76
2022/12/23 01:05:35;;;;;;;43.63;10.43;;;;;;;;;;5019980;28;20052;-75
2022/12/23 01:08:04;;;;;;;212.25;15.23;;;;;;;;;;5021122;28;20034;-75
2022/12/23 01:10:30;;;;;;;213.68;14.18;;;;;;;;;;5016128;28;20037;-75
2022/12/23 01:12:55;;;;;;;117.78;12.32;;;;;;;;;;5025882;28;20421;-75
2022/12/23 01:15:20;;;;;;;123.18;11.10;;;;;;;;;;5025381;28;20037;-75
2022/12/23 01:17:46;;;;;;;42.65;10.23;;;;;;;;;;5021770;28;20025;-75
2022/12/23 01:20:11;;;;;;;26.23;8.13;;;;;;;;;;5026718;28;20036;-75
2022/12/23 01:22:37;;;;;;;27.63;7.47;;;;;;;;;;5026129;28;20038;-75
2022/12/23 01:25:03;;;;;;;21.13;6.45;;;;;;;;;;5026354;28;20056;-75
2022/12/23 01:27:28;;;;;;;22.90;6.22;;;;;;;;;;5018090;28;20084;-75
2022/12/23 01:29:53;;;;;;;53.90;8.23;;;;;;;;;;5016341;28;20539;-74
2022/12/23 01:32:19;;;;;;;221.00;12.23;;;;;;;;;;5030909;28;20041;-75
2022/12/23 01:34:44;;;;;;;172.27;11.57;;;;;;;;;;5019713;28;20076;-75
2022/12/23 01:37:10;;;;;;;208.48;11.95;;;;;;;;;;5018687;28;20441;-75
2022/12/23 01:39:35;;;;;;;90.15;10.05;;;;;;;;;;5020903;28;20041;-76
2022/12/23 01:44:52;;;;;;;48.05;7.53;;;;;;;;;;5016523;28;20036;-76
2022/12/23 01:47:25;;;;;;;19.45;6.07;;;;;;;;;;5019403;28;20478;-75
2022/12/23 01:49:58;;;;;;;27.92;7.38;;;;;;;;;;5017940;28;20057;-75
2022/12/23 01:52:24;;;;;;;21.85;7.53;;;;;;;;;;5020044;28;20045;-76
2022/12/23 01:54:49;;;;;;;28.40;6.40;;;;;;;;;;5047475;28;20063;-76
2022/12/23 01:57:15;;;;;;;199.82;12.10;;;;;;;;;;5018657;28;20064;-76
2022/12/23 02:05:10;;;;;;;23.23;6.38;;;;;;;;;;5044349;28;20584;-75
2022/12/23 02:10:22;;;;;;;14.60;5.82;;;;;;;;;;5023689;28;20080;-76
2022/12/23 02:13:03;;;;;;;13.60;4.65;;;;;;;;;;5017366;28;20030;-76
2022/12/23 02:18:54;;;;;;;12.65;4.75;;;;;;;;;;5035437;28;20125;-75
2022/12/23 02:21:28;;;;;;;23.30;5.15;;;;;;;;;;5047126;28;20034;-75
2022/12/23 02:24:12;;;;;;;;;;;;;;;;;;5016886;28;20048;-75
2022/12/23 02:26:52;;;;;;;134.30;7.88;;;;;;;;;;5022202;28;19917;-76
2022/12/23 02:29:36;;;;;;;29.23;4.97;;;;;;;;;;5024474;28;20363;-75
2022/12/23 02:32:10;;;;;;;25.45;4.97;;;;;;;;;;5018574;28;20120;-75
2022/12/23 02:34:42;;;;;;;49.72;5.80;;;;;;;;;;5000876;28;20037;-75
2022/12/23 02:37:10;;;;;;;26.00;4.95;;;;;;;;;;5015457;28;20107;-76
2022/12/23 02:39:47;;;;;;;22.13;5.07;;;;;;;;;;5016439;28;20061;-75
2022/12/23 02:42:17;;;;;;;169.20;8.50;;;;;;;;;;5015006;28;20077;-75
2022/12/23 02:44:58;;;;;;;47.33;5.15;;;;;;;;;;5013665;28;20478;-75
2022/12/23 02:47:28;;;;;;;12.77;4.38;;;;;;;;;;5015716;28;20038;-75
2022/12/23 02:49:56;;;;;;;12.43;4.38;;;;;;;;;;5015436;28;20054;-75
2022/12/23 02:52:26;;;;;;;18.85;5.20;;;;;;;;;;5046222;28;20042;-75
2022/12/23 02:54:55;;;;;;;19.17;6.60;;;;;;;;;;4997240;28;20046;-76
2022/12/23 02:57:24;;;;;;;13.90;5.55;;;;;;;;;;5014900;28;20456;-75
2022/12/23 02:59:51;;;;;;;13.60;5.28;;;;;;;;;;5014544;28;20067;-75
2022/12/23 03:02:16;;;;;;;19.33;5.55;;;;;;;;;;5016844;28;20030;-75
2022/12/23 03:04:42;;;;;;;26.00;4.60;;;;;;;;;;5015721;28;20120;-75
2022/12/23 03:07:17;;;;;;;17.85;4.60;;;;;;;;;;5014201;28;20034;-75
2022/12/23 03:09:49;;;;;;;13.85;4.28;;;;;;;;;;5015362;28;20048;-75
2022/12/23 03:12:21;;;;;;;25.73;4.93;;;;;;;;;;5044197;28;20037;-75
2022/12/23 03:14:58;;;;;;;36.75;4.80;;;;;;;;;;5017698;28;20038;-75
2022/12/23 03:17:30;;;;;;;231.68;8.63;;;;;;;;;;5015735;28;20037;-75
2022/12/23 03:20:06;;;;;;;105.32;5.93;;;;;;;;;;5014218;28;20161;-74
2022/12/23 03:22:35;;;;;;;12.35;4.07;;;;;;;;;;5015588;28;20116;-76
2022/12/23 03:25:22;;;;;;;34.45;4.47;;;;;;;;;;5044096;28;20436;-75
2022/12/23 03:28:14;;;;;;;8.07;3.25;;;;;;;;;;5013347;28;20057;-75
2022/12/23 03:30:42;;;;;;;13.05;3.25;;;;;;;;;;5013613;28;20030;-76
2022/12/23 03:33:14;;;;;;;93.70;5.78;;;;;;;;;;5013900;28;20108;-75
2022/12/23 03:35:44;;;;;;;45.95;4.35;;;;;;;;;;5021358;28;20117;-75
2022/12/23 03:38:10;;;;;;;28.58;4.03;;;;;;;;;;5012894;28;20065;-76
2022/12/23 03:40:40;;;;;;;9.20;3.25;;;;;;;;;;5044480;28;20038;-76
2022/12/23 03:43:26;;;;;;;7.93;2.78;;;;;;;;;;5014486;28;20064;-75
2022/12/23 03:45:56;;;;;;;10.85;3.05;;;;;;;;;;5046081;28;20056;-75
2022/12/23 03:48:50;;;;;;;7.18;3.22;;;;;;;;;;5016210;28;20053;-75
2022/12/23 03:51:17;;;;;;;;;;;;;;;;;;5015445;28;20061;-75
2022/12/23 03:53:57;;;;;;;140.85;7.13;;;;;;;;;;5033898;28;19918;-75
2022/12/23 03:56:33;;;;;;;134.25;5.97;;;;;;;;;;5019162;28;20069;-75
2022/12/23 03:59:02;;;;;;;119.63;5.05;;;;;;;;;;5016970;28;20476;-75
2022/12/23 04:01:31;;;;;;;50.15;4.03;;;;;;;;;;5014326;28;20465;-75
2022/12/23 04:04:04;;;;;;;49.35;4.05;;;;;;;;;;5016649;28;20037;-75
2022/12/23 04:06:35;;;;;;;37.13;4.28;;;;;;;;;;5015403;28;20044;-75
2022/12/23 04:09:02;;;;;;;17.85;3.67;;;;;;;;;;5002862;28;20072;-75
2022/12/23 04:11:28;;;;;;;19.60;3.55;;;;;;;;;;5024510;28;20041;-75
2022/12/23 04:13:53;;;;;;;11.40;2.97;;;;;;;;;;5034531;28;20100;-75
2022/12/23 04:16:19;;;;;;;12.02;3.55;;;;;;;;;;5020799;28;20029;-75
2022/12/23 04:18:44;;;;;;;6.65;3.13;;;;;;;;;;5045570;28;20045;-75
2022/12/23 04:21:09;;;;;;;7.97;3.00;;;;;;;;;;5015129;28;20048;-75
2022/12/23 04:23:35;;;;;;;11.70;3.13;;;;;;;;;;5017069;28;20033;-75
2022/12/23 04:26:00;;;;;;;64.53;5.13;;;;;;;;;;5014373;28;20061;-75
2022/12/23 04:28:26;;;;;;;69.63;4.03;;;;;;;;;;5013090;28;20121;-75
2022/12/23 04:30:51;;;;;;;35.92;3.33;;;;;;;;;;5019196;28;20029;-75
2022/12/23 04:33:16;;;;;;;62.53;4.15;;;;;;;;;;5024317;28;20050;-75
2022/12/23 04:35:42;;;;;;;54.30;4.00;;;;;;;;;;5017484;28;20042;-74
2022/12/23 04:38:07;;;;;;;29.65;3.67;;;;;;;;;;5013501;28;20026;-75
2022/12/23 04:40:32;;;;;;;28.52;3.47;;;;;;;;;;5025489;28;20049;-76
2022/12/23 04:42:58;;;;;;;64.97;4.30;;;;;;;;;;5014449;28;20049;-75
2022/12/23 04:45:23;;;;;;;9.25;3.08;;;;;;;;;;5020446;28;20034;-75
2022/12/23 04:47:49;;;;;;;12.60;2.88;;;;;;;;;;5017357;28;20041;-75
2022/12/23 04:50:16;;;;;;;21.38;3.50;;;;;;;;;;5015741;28;20484;-75
2022/12/23 04:52:42;;;;;;;9.25;2.58;;;;;;;;;;5023191;28;20199;-75
2022/12/23 04:55:08;;;;;;;151.00;7.18;;;;;;;;;;5014999;28;20080;-75
2022/12/23 04:57:33;;;;;;;98.32;5.88;;;;;;;;;;5014222;28;20445;-75
2022/12/23 04:59:59;;;;;;;71.63;4.50;;;;;;;;;;5013209;28;20039;-75
2022/12/23 05:02:24;;;;;;;86.30;4.60;;;;;;;;;;5016818;28;20042;-75
2022/12/23 05:04:50;;;;;;;46.80;3.75;;;;;;;;;;5015914;28;20073;-75
2022/12/23 05:07:15;;;;;;;115.22;4.93;;;;;;;;;;5014864;28;20113;-75
2022/12/23 05:09:40;;;;;;;105.38;3.75;;;;;;;;;;5014102;28;20072;-75
2022/12/23 05:12:06;;;;;;;15.73;3.05;;;;;;;;;;5016828;28;20485;-76
2022/12/23 05:14:31;;;;;;;32.90;2.88;;;;;;;;;;5016388;28;20025;-75
2022/12/23 05:16:56;;;;;;;16.67;2.88;;;;;;;;;;5017337;28;20504;-75
2022/12/23 05:19:22;;;;;;;11.57;3.20;;;;;;;;;;5014607;28;20038;-76
2022/12/23 05:21:47;;;;;;;14.05;2.95;;;;;;;;;;5015330;28;20057;-76
2022/12/23 05:24:13;;;;;;;12.80;3.30;;;;;;;;;;4995251;28;20038;-76
2022/12/23 05:26:38;;;;;;;11.77;3.25;;;;;;;;;;5015223;28;20048;-76
2022/12/23 05:29:04;;;;;;;11.18;3.35;;;;;;;;;;5012250;28;20473;-75
2022/12/23 05:31:30;;;;;;;10.20;4.10;;;;;;;;;;5012271;28;20089;-75
2022/12/23 05:33:55;;;;;;;17.65;4.85;;;;;;;;;;5014237;28;20494;-75
2022/12/23 05:36:21;;;;;;;13.45;5.07;;;;;;;;;;5023535;28;20501;-74
2022/12/23 05:38:47;;;;;;;17.15;6.05;;;;;;;;;;5017339;28;20117;-75
2022/12/23 05:41:12;;;;;;;20.80;6.32;;;;;;;;;;5017300;28;20042;-74
2022/12/23 05:43:38;;;;;;;18.75;6.68;;;;;;;;;;5016894;28;20496;-74
2022/12/23 05:46:04;;;;;;;25.20;8.52;;;;;;;;;;5025463;28;20044;-74
2022/12/23 05:48:29;;;;;;;30.33;8.85;;;;;;;;;;5015928;28;20073;-74
2022/12/23 05:50:54;;;;;;;13.27;3.72;;;;;;;;;;5029663;28;20129;-74
2022/12/23 05:53:20;;;;;;;24.25;8.10;;;;;;;;;;5021559;28;20038;-73
2022/12/23 05:55:46;;;;;;;31.90;8.82;;;;;;;;;;5021361;28;20128;-74
2022/12/23 05:58:11;;;;;;;34.42;8.63;;;;;;;;;;5016534;28;20452;-73
2022/12/23 06:00:37;;;;;;;31.63;8.90;;;;;;;;;;5017169;28;20030;-74
2022/12/23 06:03:02;;;;;;;25.27;8.60;;;;;;;;;;5018110;28;20122;-74
2022/12/23 06:05:28;;;;;;;22.83;7.18;;;;;;;;;;5016738;28;20038;-74
2022/12/23 06:07:53;;;;;;;24.58;8.52;;;;;;;;;;5019916;28;20046;-74
2022/12/23 06:10:19;;;;;;;32.92;7.70;;;;;;;;;;5015818;28;20125;-73
2022/12/23 06:12:44;;;;;;;28.60;8.45;;;;;;;;;;5021123;28;20428;-75
2022/12/23 06:15:10;;;;;;;20.65;7.85;;;;;;;;;;5020845;28;20034;-73
2022/12/23 06:17:35;;;;;;;20.90;6.70;;;;;;;;;;5019289;28;20502;-74
2022/12/23 06:20:01;;;;;;;29.25;8.80;;;;;;;;;;5018975;28;20275;-74
2022/12/23 06:22:26;;;;;;;30.70;8.43;;;;;;;;;;5017998;28;20048;-74
2022/12/23 06:24:51;;;;;;;21.77;7.85;;;;;;;;;;5015328;28;20103;-74
2022/12/23 06:27:17;;;;;;;15.10;5.70;;;;;;;;;;5016679;28;20113;-74
2022/12/23 06:29:43;;;;;;;38.22;7.97;;;;;;;;;;5015237;28;20096;-74
2022/12/23 06:32:08;;;;;;;19.65;6.25;;;;;;;;;;5022271;28;20033;-74
2022/12/23 06:34:34;;;;;;;18.20;5.93;;;;;;;;;;5015013;28;20065;-74
2022/12/23 06:36:59;;;;;;;14.07;4.32;;;;;;;;;;5018668;28;20038;-74
2022/12/23 06:39:25;;;;;;;20.60;6.25;;;;;;;;;;5015265;28;20046;-74
2022/12/23 06:41:50;;;;;;;15.82;5.70;;;;;;;;;;5015978;28;20029;-75
2022/12/23 06:44:16;;;;;;;20.38;5.55;;;;;;;;;;5014982;28;20036;-76
2022/12/23 06:46:41;;;;;;;64.40;7.45;;;;;;;;;;5023593;28;20370;-75
2022/12/23 06:49:06;;;;;;;12.95;4.40;;;;;;;;;;5014316;28;20042;-75
2022/12/23 06:51:32;;;;;;;5.93;2.28;;;;;;;;;;5016852;28;20049;-76
2022/12/23 06:53:58;;;;;;;18.08;4.22;;;;;;;;;;5014506;28;20033;-76
2022/12/23 06:56:24;;;;;;;12.95;3.35;;;;;;;;;;5017885;28;20465;-75
2022/12/23 06:58:51;;;;;;;15.52;3.55;;;;;;;;;;5000751;28;20038;-76
2022/12/23 07:01:17;;;;;;;9.32;3.55;;;;;;;;;;5014605;28;20045;-75
2022/12/23 07:03:42;;;;;;;9.27;3.33;;;;;;;;;;5010419;28;20030;-75
2022/12/23 07:06:07;;;;;;;7.00;2.63;;;;;;;;;;5015078;28;20114;-76
2022/12/23 07:08:33;;;;;;;9.38;2.92;;;;;;;;;;5011163;28;20060;-75
2022/12/23 07:10:59;;;;;;;8.10;2.90;;;;;;;;;;5011746;28;20037;-76
2022/12/23 07:13:25;;;;;;;16.58;3.47;;;;;;;;;;5006214;28;20124;-75
2022/12/23 07:15:50;;;;;;;16.15;3.22;;;;;;;;;;5011059;28;20501;-75
2022/12/23 07:18:15;;;;;;;122.05;6.50;;;;;;;;;;5009770;28;20044;-75
2022/12/23 07:20:41;;;;;;;0.00;0.00;;;;;;;;;;5011988;28;20165;-75
2022/12/23 07:23:06;;;;;;;15.70;3.92;;;;;;;;;;5010915;28;20125;-74
2022/12/23 07:25:32;;;;;;;41.13;4.70;;;;;;;;;;5010161;28;20114;-75
2022/12/23 07:27:57;;;;;;;10.38;3.08;;;;;;;;;;5011936;28;20507;-75
2022/12/23 07:30:23;;;;;;;8.10;2.80;;;;;;;;;;5012442;28;20100;-76
2022/12/23 07:32:49;;;;;;;7.32;3.00;;;;;;;;;;5011324;28;20461;-75
2022/12/23 07:35:15;;;;;;;13.05;3.50;;;;;;;;;;5011892;28;20111;-74
2022/12/23 07:37:40;;;;;;;8.18;2.58;;;;;;;;;;5009904;28;20478;-74
2022/12/23 07:40:08;;;;;;;5.22;2.50;;;;;;;;;;5009434;28;20085;-74
2022/12/23 07:42:33;;;;;;;10.88;1.85;;;;;;;;;;5009511;28;20053;-74
2022/12/23 07:44:59;;;;;;;7.05;2.58;;;;;;;;;;5011789;28;20033;-75
2022/12/23 07:47:24;;;;;;;11.93;2.83;;;;;;;;;;5011948;28;20452;-75
2022/12/23 07:49:50;;;;;;;7.35;2.28;;;;;;;;;;5010120;28;20057;-75
2022/12/23 07:52:15;;;;;;;10.90;2.60;;;;;;;;;;5011988;28;20056;-74
2022/12/23 07:54:40;;;;;;;9.20;3.17;;;;;;;;;;5012277;28;20045;-75
2022/12/23 07:57:06;;;;;;;8.93;3.40;;;;;;;;;;5013432;28;20471;-75
2022/12/23 07:59:31;;;;;;;6.80;2.45;;;;;;;;;;5012564;28;20046;-75
2022/12/23 08:01:57;;;;;;;9.45;2.30;;;;;;;;;;4997061;28;20038;-77
2022/12/23 08:04:22;;;;;;;7.88;3.10;;;;;;;;;;5010515;28;20037;-76
2022/12/23 08:06:48;;;;;;;6.05;2.38;;;;;;;;;;5011541;28;20040;-75
2022/12/23 08:09:13;;;;;;;8.25;2.70;;;;;;;;;;5011074;28;20381;-76
2022/12/23 08:11:39;;;;;;;12.18;2.90;;;;;;;;;;5018395;28;20034;-75
2022/12/23 08:14:04;;;;;;;6.38;2.22;;;;;;;;;;5042315;28;20038;-76
2022/12/23 08:16:29;;;;;;;11.18;2.30;;;;;;;;;;5010596;28;20515;-75
2022/12/23 08:18:55;;;;;;;6.28;2.30;;;;;;;;;;5011170;28;20616;-76
2022/12/23 08:21:20;;;;;;;8.15;2.08;;;;;;;;;;5010335;28;20069;-75
2022/12/23 08:23:47;;;;;;;4.88;1.90;;;;;;;;;;5011992;28;20030;-76
2022/12/23 08:26:17;;;;;;;10.77;1.77;;;;;;;;;;5009235;28;20088;-75
2022/12/23 08:28:43;;;;;;;0.10;0.10;;;;;;;;;;5010082;28;20123;-75
2022/12/23 08:31:32;;;;;;;0.20;0.20;;;;;;;;;;5008784;28;20030;-75
2022/12/23 08:33:59;;;;;;;0.10;0.10;;;;;;;;;;5010269;28;20117;-75
2022/12/23 08:36:26;;;;;;;0.10;0.10;;;;;;;;;;5009188;28;20088;-74
2022/12/23 08:38:53;;;;;;;0.10;0.10;;;;;;;;;;5008776;28;20033;-74
2022/12/23 08:41:22;;;;;;;0.10;0.10;;;;;;;;;;5009921;28;20050;-75
2022/12/23 08:43:48;;;;;;;1.65;0.95;;;;;;;;;;5011126;28;20061;-75
2022/12/23 08:46:13;;;;;;;2.67;1.05;;;;;;;;;;5010331;28;20026;-75
2022/12/23 08:48:39;;;;;;;3.00;1.20;;;;;;;;;;5018000;28;20754;-74
2022/12/23 08:51:07;;;;;;;3.20;1.30;;;;;;;;;;5011147;28;20033;-74
2022/12/23 08:53:33;;;;;;;4.97;1.63;;;;;;;;;;5008335;28;20048;-76
2022/12/23 08:56:04;;;;;;;5.20;1.75;;;;;;;;;;5011542;28;20037;-75
2022/12/23 08:58:30;;;;;;;2.50;1.25;;;;;;;;;;5040164;28;20034;-75
2022/12/23 09:00:56;;;;;;;46.15;24.23;;;;;;;;;;5015969;28;20030;-75
2022/12/23 09:03:21;;;;;;;23.55;11.88;;;;;;;;;;5014206;28;20496;-75
2022/12/23 09:05:47;;;;;;;14.07;5.03;;;;;;;;;;5010231;28;20466;-76
2022/12/23 09:08:12;;;;;;;5.45;2.03;;;;;;;;;;4998344;28;20088;-76
2022/12/23 09:10:44;;;;;;;33.13;17.05;;;;;;;;;;5022230;28;20053;-77
2022/12/23 09:13:10;;;;;;;80.32;41.08;;;;;;;;;;5017021;28;20038;-78
2022/12/23 09:15:43;;;;;;;13.77;8.05;;;;;;;;;;5014295;28;20042;-75
2022/12/23 09:18:09;;;;;;;8.00;4.07;;;;;;;;;;5022457;28;20532;-75
2022/12/23 09:20:35;;;;;;;20.55;9.80;;;;;;;;;;5018121;28;20047;-77
2022/12/23 09:23:00;;;;;;;4.68;1.77;;;;;;;;;;5013244;28;20116;-77
2022/12/23 09:25:26;;;;;;;4.00;1.55;;;;;;;;;;5013634;28;20091;-78
2022/12/23 09:27:51;;;;;;;2.78;1.42;;;;;;;;;;5013543;28;20045;-77
2022/12/23 09:30:17;;;;;;;3.15;1.75;;;;;;;;;;5013836;28;20046;-77
2022/12/23 09:32:42;;;;;;;2.90;1.35;;;;;;;;;;5014119;28;20038;-77
2022/12/23 09:35:08;;;;;;;3.30;1.55;;;;;;;;;;5012085;28;20044;-77
2022/12/23 09:37:34;;;;;;;9.57;3.72;;;;;;;;;;5011739;28;20034;-77
2022/12/23 09:40:00;;;;;;;9.05;4.47;;;;;;;;;;5010631;28;20034;-77
2022/12/23 09:42:43;;;;;;;15.38;5.30;;;;;;;;;;5015036;28;20044;-76
2022/12/23 09:45:24;;;;;;;13.40;4.68;;;;;;;;;;5012363;28;20482;-77
2022/12/23 09:47:50;;;;;;;7.70;3.08;;;;;;;;;;5036438;28;20424;-77
2022/12/23 09:50:24;;;;;;;8.98;2.60;;;;;;;;;;5014332;28;20485;-77
2022/12/23 09:52:58;;;;;;;3.47;1.75;;;;;;;;;;5017071;28;20046;-77
2022/12/23 09:55:33;;;;;;;6.47;1.70;;;;;;;;;;5017216;28;20462;-76
2022/12/23 09:58:07;;;;;;;4.25;1.90;;;;;;;;;;5021818;28;20034;-76
2022/12/23 10:00:38;;;;;;;6.63;2.03;;;;;;;;;;5021467;28;20092;-76
2022/12/23 10:03:17;;;;;;;3.38;1.60;;;;;;;;;;5045110;28;20053;-75
2022/12/23 10:05:49;;;;;;;4.82;1.20;;;;;;;;;;5017009;28;20038;-76
2022/12/23 10:08:33;;;;;;;2.67;1.10;;;;;;;;;;5011425;28;20046;-75
2022/12/23 10:11:00;;;;;;;;;;;;;;;;;;5015715;28;20121;-75
2022/12/23 10:13:28;;;;;;;6.47;2.97;;;;;;;;;;5016183;28;19917;-76
2022/12/23 10:15:56;;;;;;;6.35;3.55;;;;;;;;;;5012993;28;20488;-76
2022/12/23 10:18:33;;;;;;;5.82;2.95;;;;;;;;;;5013698;28;20030;-77
2022/12/23 10:21:02;;;;;;;5.22;2.30;;;;;;;;;;5046773;28;20077;-76
2022/12/23 10:23:37;;;;;;;4.10;2.50;;;;;;;;;;5014059;28;20124;-76
2022/12/23 10:26:07;;;;;;;6.70;2.70;;;;;;;;;;5015337;28;20042;-76
2022/12/23 10:28:33;;;;;;;3.72;2.05;;;;;;;;;;5014184;28;20069;-76
2022/12/23 10:31:04;;;;;;;10.38;5.45;;;;;;;;;;5015510;28;20073;-76
2022/12/23 10:33:46;;;;;;;9.18;3.28;;;;;;;;;;5013052;28;20026;-76
2022/12/23 10:36:28;;;;;;;9.50;5.43;;;;;;;;;;5014077;28;20065;-76
2022/12/23 10:39:12;;;;;;;12.35;7.25;;;;;;;;;;5047139;28;20041;-76
2022/12/23 10:41:56;;;;;;;;;;;;;;;;;;5009789;28;20580;-77
2022/12/23 10:44:39;;;;;;;8.35;3.08;;;;;;;;;;5002656;28;19913;-76
2022/12/23 10:47:23;;;;;;;6.65;3.83;;;;;;;;;;5014525;28;20069;-77
2022/12/23 10:50:10;;;;;;;9.35;3.90;;;;;;;;;;5014687;28;20041;-78
2022/12/23 10:52:38;;;;;;;7.88;4.32;;;;;;;;;;5014600;28;20053;-78
2022/12/23 10:55:04;;;;;;;6.47;4.22;;;;;;;;;;5047022;28;20055;-77
2022/12/23 10:57:30;;;;;;;6.38;3.70;;;;;;;;;;5046003;28;20473;-77
2022/12/23 10:59:56;;;;;;;7.65;5.20;;;;;;;;;;5046471;28;20187;-77
2022/12/23 11:02:21;;;;;;;10.35;3.63;;;;;;;;;;5015018;28;20061;-78
2022/12/23 11:04:48;;;;;;;7.13;3.25;;;;;;;;;;5014564;28;20061;-78
2022/12/23 11:07:24;;;;;;;5.05;2.83;;;;;;;;;;5013597;28;20053;-78
2022/12/23 11:09:53;;;;;;;5.68;3.15;;;;;;;;;;5013231;28;20532;-78
2022/12/23 11:12:22;;;;;;;9.20;4.55;;;;;;;;;;5014550;28;20048;-78
2022/12/23 11:14:53;;;;;;;7.72;3.72;;;;;;;;;;5013629;28;20038;-78
2022/12/23 11:17:22;;;;;;;5.38;3.15;;;;;;;;;;5013421;28;20076;-78
2022/12/23 11:20:04;;;;;;;7.40;3.72;;;;;;;;;;5014246;28;20545;-77
2022/12/23 11:22:30;;;;;;;6.78;2.95;;;;;;;;;;5013427;28;20038;-78
2022/12/23 11:25:16;;;;;;;6.18;2.55;;;;;;;;;;5014496;28;20438;-78
2022/12/23 11:27:43;;;;;;;6.20;2.45;;;;;;;;;;5011234;28;20482;-78
2022/12/23 11:30:16;;;;;;;6.50;3.28;;;;;;;;;;5014367;28;20385;-78
2022/12/23 11:32:42;;;;;;;10.85;3.30;;;;;;;;;;5012735;28;20038;-78
2022/12/23 11:35:23;;;;;;;9.80;3.70;;;;;;;;;;5046020;28;20443;-77
2022/12/23 11:37:49;;;;;;;11.65;3.65;;;;;;;;;;5003682;28;20044;-77
2022/12/23 11:40:22;;;;;;;8.35;3.92;;;;;;;;;;5013854;28;20437;-77
2022/12/23 11:42:48;;;;;;;12.35;4.95;;;;;;;;;;5045858;28;20116;-77
2022/12/23 11:45:22;;;;;;;16.45;5.50;;;;;;;;;;5012685;28;20125;-76
2022/12/23 11:47:48;;;;;;;11.98;4.85;;;;;;;;;;5014139;28;20040;-78
2022/12/23 11:50:25;;;;;;;14.65;5.15;;;;;;;;;;5012555;28;20049;-78
2022/12/23 11:52:52;;;;;;;13.02;4.13;;;;;;;;;;5013947;28;20025;-78
2022/12/23 11:55:27;;;;;;;17.63;4.68;;;;;;;;;;5012868;28;20038;-77
2022/12/23 11:57:54;;;;;;;10.13;4.40;;;;;;;;;;4999933;28;20053;-78
2022/12/23 12:00:26;;;;;;;14.27;4.03;;;;;;;;;;5012360;28;20485;-78
2022/12/23 12:02:54;;;;;;;15.70;4.65;;;;;;;;;;5012374;28;20470;-78
2022/12/23 12:05:39;;;;;;;13.65;4.97;;;;;;;;;;5012869;28;20045;-77
2022/12/23 12:08:18;;;;;;;9.35;4.00;;;;;;;;;;5002156;28;20037;-77
2022/12/23 12:10:43;;;;;;;14.95;3.78;;;;;;;;;;5013643;28;20042;-77
2022/12/23 12:13:30;;;;;;;17.20;4.10;;;;;;;;;;5012211;28;20030;-77
2022/12/23 12:16:22;;;;;;;13.05;3.22;;;;;;;;;;5026869;28;20464;-77
2022/12/23 12:18:49;;;;;;;19.70;3.53;;;;;;;;;;5012609;28;20036;-77
2022/12/23 12:21:24;;;;;;;17.65;3.45;;;;;;;;;;5012218;28;20512;-77
2022/12/23 12:23:56;;;;;;;19.25;2.70;;;;;;;;;;5012481;28;20049;-77
2022/12/23 12:26:27;;;;;;;23.35;3.50;;;;;;;;;;5012024;28;20512;-77
2022/12/23 12:28:59;;;;;;;37.58;4.18;;;;;;;;;;5045379;28;20149;-77
2022/12/23 12:31:41;;;;;;;27.88;2.58;;;;;;;;;;5013636;28;20034;-77
2022/12/23 12:34:44;;;;;;;26.00;2.60;;;;;;;;;;5045053;28;20520;-77
2022/12/23 12:37:20;;;;;;;30.05;2.97;;;;;;;;;;5003589;28;20037;-77
2022/12/23 12:40:17;;;;;;;32.40;3.63;;;;;;;;;;5011822;28;20030;-78
2022/12/23 12:42:47;;;;;;;33.70;3.45;;;;;;;;;;4999041;28;20038;-77
2022/12/23 12:45:17;;;;;;;25.23;3.80;;;;;;;;;;5049198;28;20044;-77
2022/12/23 12:48:09;;;;;;;27.33;4.45;;;;;;;;;;5015110;28;20042;-77
2022/12/23 12:50:40;;;;;;;29.73;3.35;;;;;;;;;;5016797;28;20037;-77
2022/12/23 12:53:12;;;;;;;36.33;6.13;;;;;;;;;;5015298;28;20038;-77
2022/12/23 12:55:41;;;;;;;29.17;4.93;;;;;;;;;;5015060;28;20037;-77
2022/12/23 12:58:24;;;;;;;24.45;3.47;;;;;;;;;;5048675;28;20038;-77
2022/12/23 13:01:02;;;;;;;18.35;3.70;;;;;;;;;;5008044;28;20116;-77
2022/12/23 13:04:05;;;;;;;26.95;3.20;;;;;;;;;;5017030;28;20092;-77
2022/12/23 13:06:38;;;;;;;26.67;4.27;;;;;;;;;;5000088;28;20081;-77
2022/12/23 13:09:07;;;;;;;39.80;3.55;;;;;;;;;;5006973;28;20298;-76
2022/12/23 13:11:45;;;;;;;36.10;3.83;;;;;;;;;;5019319;28;20421;-77
2022/12/23 13:14:41;;;;;;;27.88;3.58;;;;;;;;;;5017230;28;20099;-77
2022/12/23 13:17:12;;;;;;;30.88;2.58;;;;;;;;;;5041438;28;20065;-79
2022/12/23 13:19:44;;;;;;;27.38;2.95;;;;;;;;;;5025056;28;20046;-78
2022/12/23 13:22:15;;;;;;;18.25;3.00;;;;;;;;;;5018986;28;20034;-78
2022/12/23 13:25:03;;;;;;;18.40;2.25;;;;;;;;;;5016030;28;20037;-77
2022/12/23 13:28:01;;;;;;;23.60;2.13;;;;;;;;;;5018429;28;20046;-77
2022/12/23 13:30:31;;;;;;;14.35;2.75;;;;;;;;;;4975351;28;20524;-78
2022/12/23 13:33:17;;;;;;;11.30;2.00;;;;;;;;;;5047578;28;20164;-78
2022/12/23 13:35:49;;;;;;;13.90;2.08;;;;;;;;;;5017548;28;20041;-78
2022/12/23 13:38:20;;;;;;;13.93;2.25;;;;;;;;;;5017220;28;20097;-78
2022/12/23 13:41:03;;;;;;;20.10;2.25;;;;;;;;;;5016259;28;20494;-78
2022/12/23 13:43:59;;;;;;;12.40;2.15;;;;;;;;;;5019808;28;20065;-79
2022/12/23 13:46:30;;;;;;;13.07;2.63;;;;;;;;;;5020089;28;20115;-78
2022/12/23 13:49:17;;;;;;;12.57;2.95;;;;;;;;;;5014500;28;20050;-79
2022/12/23 13:51:47;;;;;;;12.27;1.33;;;;;;;;;;5020555;28;20548;-79
2022/12/23 13:54:24;;;;;;;9.60;1.60;;;;;;;;;;5019584;28;20485;-79
2022/12/23 13:57:07;;;;;;;9.88;1.60;;;;;;;;;;5021095;28;20041;-78
2022/12/23 13:59:43;;;;;;;18.10;1.88;;;;;;;;;;5029087;28;20092;-78
2022/12/23 14:02:34;;;;;;;10.77;1.95;;;;;;;;;;5025228;28;20543;-79
2022/12/23 14:04:59;;;;;;;9.95;1.95;;;;;;;;;;5005146;28;20030;-79
2022/12/23 14:07:26;;;;;;;10.43;2.17;;;;;;;;;;5029727;28;20064;-78
2022/12/23 14:10:08;;;;;;;12.48;1.60;;;;;;;;;;5026726;28;20041;-79
2022/12/23 14:12:38;;;;;;;13.07;2.30;;;;;;;;;;5020720;28;20496;-79
2022/12/23 14:15:37;;;;;;;15.45;2.30;;;;;;;;;;5033824;28;20037;-79
2022/12/23 14:18:43;;;;;;;13.98;1.77;;;;;;;;;;5025747;28;20127;-78
2022/12/23 14:21:40;;;;;;;12.48;2.05;;;;;;;;;;5043276;28;20438;-78
2022/12/23 14:24:33;;;;;;;13.73;2.92;;;;;;;;;;5020821;28;20030;-78
2022/12/23 14:27:37;;;;;;;13.73;2.30;;;;;;;;;;5026055;28;20539;-77
2022/12/23 14:30:30;;;;;;;11.68;2.40;;;;;;;;;;5021079;28;20524;-78
2022/12/23 14:33:01;;;;;;;17.20;3.63;;;;;;;;;;5023086;28;20034;-78
2022/12/23 14:35:47;;;;;;;24.83;6.57;;;;;;;;;;5032860;28;20385;-79
2022/12/23 14:38:13;;;;;;;20.55;5.80;;;;;;;;;;5020901;28;20025;-78
2022/12/23 14:40:38;;;;;;;26.08;5.85;;;;;;;;;;5024210;28;20061;-78
2022/12/23 14:43:21;;;;;;;23.85;5.78;;;;;;;;;;5032771;28;20037;-77
2022/12/23 14:45:48;;;;;;;17.52;3.38;;;;;;;;;;5024913;28;20401;-79
2022/12/23 14:48:32;;;;;;;16.00;4.25;;;;;;;;;;5020494;28;20041;-79
2022/12/23 14:50:57;;;;;;;23.73;4.28;;;;;;;;;;5014686;28;20042;-79
2022/12/23 14:53:25;;;;;;;11.30;2.58;;;;;;;;;;5019284;28;20045;-78
2022/12/23 14:56:10;;;;;;;13.07;2.40;;;;;;;;;;5018599;28;20038;-79
2022/12/23 14:58:44;;;;;;;12.05;3.42;;;;;;;;;;5029560;28;20045;-78
2022/12/23 15:01:28;;;;;;;;;;;;;;;;;;5022518;28;20118;-78
2022/12/23 15:03:55;;;;;;;11.33;1.60;;;;;;;;;;5019747;28;19921;-78
2022/12/23 15:06:39;;;;;;;7.72;1.08;;;;;;;;;;5021284;28;20263;-77
2022/12/23 15:09:07;;;;;;;3.15;1.27;;;;;;;;;;5014983;28;20120;-78
2022/12/23 15:11:33;;;;;;;11.23;1.65;;;;;;;;;;5024533;28;20091;-78
2022/12/23 15:14:03;;;;;;;12.25;1.35;;;;;;;;;;5037412;28;20062;-78
2022/12/23 15:16:34;;;;;;;5.97;1.38;;;;;;;;;;5021615;28;20103;-78
2022/12/23 15:19:11;;;;;;;12.75;1.83;;;;;;;;;;5031351;28;20026;-78
2022/12/23 15:21:36;;;;;;;5.22;1.90;;;;;;;;;;5020483;28;20062;-77